Time;durP1;ratioP1;P1;durP2;ratioP2;P2;SDS_P1;SDS_P2;PMS_P1;PMS_P2;Temp;Humidity;BMP_temperature;BMP_pressure;BME280_temperature;BME280_humidity;BME280_pressure;Samples;Min_cycle;Max_cycle;Signal;HPM_P1;HPM_P2
2022/11/09 00:01:29;;;;;;;10.23;9.27;;;;;;;3.87;100.00;96895.03;5020953;28;20209;-61
2022/11/09 00:04:01;;;;;;;10.97;8.80;;;;;;;3.90;100.00;96896.53;5022399;28;20406;-59
2022/11/09 00:06:30;;;;;;;9.10;8.33;;;;;;;3.89;100.00;96894.88;4972900;28;20419;-59
2022/11/09 00:09:00;;;;;;;9.53;8.73;;;;;;;3.87;100.00;96884.56;5022763;28;20238;-60
2022/11/09 00:11:34;;;;;;;10.97;9.23;;;;;;;3.89;100.00;96879.16;4997628;28;20521;-60
2022/11/09 00:14:03;;;;;;;10.20;9.20;;;;;;;3.91;100.00;96880.66;5020609;28;20400;-61
2022/11/09 00:16:31;;;;;;;9.60;8.80;;;;;;;3.90;100.00;96876.38;5020273;28;20326;-60
2022/11/09 00:19:01;;;;;;;10.23;9.13;;;;;;;3.88;100.00;96880.97;5034732;28;20290;-60
2022/11/09 00:21:30;;;;;;;10.40;9.40;;;;;;;3.89;100.00;96879.16;4978359;28;20744;-59
2022/11/09 00:23:58;;;;;;;10.10;9.20;;;;;;;3.97;100.00;96884.47;5037347;28;20616;-62
2022/11/09 00:26:26;;;;;;;10.77;9.60;;;;;;;3.97;100.00;96891.50;5028010;28;20625;-61
2022/11/09 00:28:55;;;;;;;11.77;10.57;;;;;;;3.97;100.00;96887.09;5003869;28;20366;-61
2022/11/09 00:31:24;;;;;;;11.10;10.20;;;;;;;3.93;100.00;96882.31;5036972;28;21084;-61
2022/11/09 00:33:54;;;;;;;14.37;12.23;;;;;;;3.91;100.00;96877.19;5037360;28;20525;-61
2022/11/09 00:36:26;;;;;;;11.40;10.30;;;;;;;3.90;100.00;96881.63;4981276;28;20410;-62
2022/11/09 00:38:56;;;;;;;11.43;10.33;;;;;;;3.88;100.00;96872.25;5024390;28;20551;-60
2022/11/09 00:41:25;;;;;;;11.90;10.70;;;;;;;3.87;100.00;96879.31;5017664;28;20441;-62
2022/11/09 00:43:54;;;;;;;10.13;9.33;;;;;;;3.85;100.00;96881.25;5005790;28;20222;-62
2022/11/09 00:46:23;;;;;;;11.10;10.20;;;;;;;3.83;100.00;96882.38;5023704;28;20571;-62
2022/11/09 00:48:51;;;;;;;11.43;10.43;;;;;;;3.86;100.00;96884.69;5020854;28;20227;-62
2022/11/09 00:51:20;;;;;;;11.47;10.37;;;;;;;3.83;100.00;96859.63;4971733;28;20309;-61
2022/11/09 00:53:53;;;;;;;12.57;11.27;;;;;;;4.00;100.00;96865.84;5019685;28;20222;-61
2022/11/09 00:56:22;;;;;;;12.63;11.50;;;;;;;4.07;100.00;96865.22;5022367;28;20198;-62
2022/11/09 00:58:53;;;;;;;13.13;11.93;;;;;;;4.16;100.00;96869.56;5020435;28;20528;-58
2022/11/09 01:01:22;;;;;;;13.40;12.20;;;;;;;4.17;100.00;96866.81;4997419;28;20207;-61
2022/11/09 01:03:50;;;;;;;13.73;12.20;;;;;;;4.29;100.00;96867.38;5021161;28;20673;-61
2022/11/09 01:06:20;;;;;;;15.40;13.90;;;;;;;4.33;100.00;96870.53;4968075;28;20889;-60
2022/11/09 01:08:51;;;;;;;14.77;13.37;;;;;;;4.35;100.00;96868.56;5018112;28;20448;-59
2022/11/09 01:11:20;;;;;;;15.90;14.37;;;;;;;4.33;100.00;96865.28;5021821;28;20198;-59
2022/11/09 01:13:49;;;;;;;14.57;13.10;;;;;;;4.32;100.00;96855.75;5018942;28;20289;-56
2022/11/09 01:16:20;;;;;;;15.27;13.77;;;;;;;4.35;100.00;96839.72;4989581;28;20409;-60
2022/11/09 01:18:48;;;;;;;15.33;13.93;;;;;;;4.30;100.00;96837.53;5023184;28;20360;-59
2022/11/09 01:21:17;;;;;;;14.90;12.53;;;;;;;4.22;100.00;96816.50;4974595;28;20561;-58
2022/11/09 01:23:45;;;;;;;13.57;12.27;;;;;;;4.24;100.00;96808.50;5024832;28;20316;-60
2022/11/09 01:26:16;;;;;;;13.37;12.10;;;;;;;4.12;100.00;96807.91;4970718;28;20225;-59
2022/11/09 01:28:45;;;;;;;12.83;11.70;;;;;;;4.08;100.00;96812.63;5023399;28;20355;-60
2022/11/09 01:31:15;;;;;;;12.90;11.60;;;;;;;4.05;100.00;96812.94;5027030;28;21069;-61
2022/11/09 01:33:43;;;;;;;13.80;12.50;;;;;;;4.11;100.00;96814.94;5009126;28;20984;-60
2022/11/09 01:36:14;;;;;;;13.50;12.20;;;;;;;4.18;100.00;96836.97;5023477;28;20487;-61
2022/11/09 01:38:43;;;;;;;13.93;12.67;;;;;;;4.20;100.00;96842.06;4993270;28;20316;-60
2022/11/09 01:41:13;;;;;;;13.70;12.43;;;;;;;4.05;100.00;96850.47;4977292;28;20219;-61
2022/11/09 01:43:43;;;;;;;14.27;12.87;;;;;;;4.01;100.00;96840.44;5021245;28;20960;-60
2022/11/09 01:46:16;;;;;;;13.67;12.47;;;;;;;4.01;100.00;96835.19;5026127;28;20226;-61
2022/11/09 01:48:48;;;;;;;13.90;12.67;;;;;;;4.04;100.00;96834.88;5022378;28;20906;-61
2022/11/09 01:51:22;;;;;;;17.80;14.70;;;;;;;4.11;100.00;96851.66;5025026;28;20344;-61
2022/11/09 01:53:53;;;;;;;15.10;13.43;;;;;;;4.10;100.00;96849.19;5000101;28;20496;-59
2022/11/09 01:56:22;;;;;;;15.63;13.53;;;;;;;4.07;100.00;96836.38;4997243;28;20206;-62
2022/11/09 01:58:55;;;;;;;13.97;12.77;;;;;;;4.17;100.00;96850.22;5006670;28;20219;-60
2022/11/09 02:01:24;;;;;;;14.73;13.23;;;;;;;4.22;100.00;96847.16;5007504;28;20497;-62
2022/11/09 02:03:56;;;;;;;15.67;14.27;;;;;;;4.30;100.00;96844.59;5020968;28;20237;-60
2022/11/09 02:06:26;;;;;;;14.90;13.40;;;;;;;4.35;100.00;96835.28;5020823;28;20233;-61
2022/11/09 02:09:02;;;;;;;15.77;14.37;;;;;;;4.41;100.00;96831.22;5029800;28;22496;-56
2022/11/09 02:11:31;;;;;;;14.97;13.57;;;;;;;4.39;100.00;96824.50;4949162;28;21263;-62
2022/11/09 02:14:03;;;;;;;14.97;13.47;;;;;;;4.43;100.00;96823.22;5024603;28;20301;-61
2022/11/09 02:16:32;;;;;;;14.83;13.43;;;;;;;4.46;100.00;96844.69;4999762;28;20397;-62
2022/11/09 02:19:01;;;;;;;14.67;13.33;;;;;;;4.52;100.00;96856.41;5017483;28;20343;-62
2022/11/09 02:21:32;;;;;;;16.17;14.47;;;;;;;4.59;100.00;96854.78;5024102;28;20935;-58
2022/11/09 02:24:01;;;;;;;16.00;14.43;;;;;;;4.63;100.00;96852.69;4993813;28;21535;-60
2022/11/09 02:26:32;;;;;;;16.67;14.97;;;;;;;4.61;100.00;96839.72;4978711;28;20268;-61
2022/11/09 02:29:03;;;;;;;15.87;14.37;;;;;;;4.65;100.00;96842.88;5002744;28;20759;-60
2022/11/09 02:31:34;;;;;;;16.90;15.13;;;;;;;4.75;100.00;96848.03;5014208;28;20613;-61
2022/11/09 02:34:07;;;;;;;15.70;14.17;;;;;;;4.76;100.00;96837.34;5012750;28;20294;-61
2022/11/09 02:36:37;;;;;;;15.43;13.93;;;;;;;4.72;100.00;96822.91;5022155;28;20217;-61
2022/11/09 02:39:05;;;;;;;15.47;13.97;;;;;;;4.65;100.00;96819.25;5025573;28;20304;-61
2022/11/09 02:41:34;;;;;;;15.33;13.73;;;;;;;4.62;100.00;96823.00;4996726;28;20210;-60
2022/11/09 02:44:03;;;;;;;14.63;13.33;;;;;;;4.55;100.00;96829.03;4975237;28;20223;-61
2022/11/09 02:46:33;;;;;;;15.20;13.70;;;;;;;4.42;100.00;96824.19;5011770;28;20229;-60
2022/11/09 02:49:02;;;;;;;13.90;12.60;;;;;;;4.29;100.00;96825.41;5008098;28;20888;-61
2022/11/09 02:51:30;;;;;;;14.37;13.07;;;;;;;4.23;100.00;96826.03;5022794;28;20212;-58
2022/11/09 02:54:00;;;;;;;15.57;13.97;;;;;;;4.19;100.00;96837.78;5023184;28;20424;-58
2022/11/09 02:56:29;;;;;;;16.20;14.23;;;;;;;4.19;100.00;96833.38;4997586;28;20203;-60
2022/11/09 02:58:57;;;;;;;20.23;14.47;;;;;;;4.22;100.00;96823.56;4970470;28;20439;-60
2022/11/09 03:01:25;;;;;;;16.37;14.57;;;;;;;4.20;100.00;96821.06;5022326;28;20797;-59
2022/11/09 03:03:54;;;;;;;14.93;13.53;;;;;;;4.28;100.00;96810.63;4997087;28;21580;-62
2022/11/09 03:06:33;;;;;;;16.27;14.87;;;;;;;4.39;100.00;96800.91;5023339;28;20231;-59
2022/11/09 03:09:05;;;;;;;15.57;14.10;;;;;;;4.43;100.00;96813.53;5024512;28;20685;-62
2022/11/09 03:11:33;;;;;;;17.13;15.20;;;;;;;4.46;100.00;96817.66;4996026;28;20681;-61
2022/11/09 03:14:02;;;;;;;16.07;14.67;;;;;;;4.45;100.00;96824.69;4974783;28;20221;-61
2022/11/09 03:16:31;;;;;;;17.57;14.90;;;;;;;4.41;100.00;96830.41;5022342;28;20538;-60
2022/11/09 03:19:00;;;;;;;17.83;15.93;;;;;;;4.40;100.00;96829.59;4993904;28;21076;-58
2022/11/09 03:21:29;;;;;;;17.30;15.70;;;;;;;4.38;100.00;96828.91;5022395;28;20427;-60
2022/11/09 03:23:57;;;;;;;16.50;14.87;;;;;;;4.30;100.00;96834.91;5022763;28;20248;-59
2022/11/09 03:26:27;;;;;;;20.03;14.90;;;;;;;4.21;100.00;96825.34;4993062;28;20292;-60
2022/11/09 03:28:55;;;;;;;15.93;14.53;;;;;;;4.12;100.00;96828.88;4973516;28;20424;-60
2022/11/09 03:31:23;;;;;;;15.53;14.00;;;;;;;4.05;100.00;96837.38;5021756;28;20214;-57
2022/11/09 03:33:52;;;;;;;16.07;14.37;;;;;;;4.05;100.00;96837.38;4939191;28;20984;-60
2022/11/09 03:36:20;;;;;;;15.03;13.53;;;;;;;4.09;100.00;96843.13;5021580;28;20387;-59
2022/11/09 03:38:48;;;;;;;16.47;14.97;;;;;;;4.10;100.00;96846.56;4994662;28;20338;-61
2022/11/09 03:41:17;;;;;;;17.27;15.47;;;;;;;4.08;100.00;96859.00;5022160;28;20210;-59
2022/11/09 03:43:46;;;;;;;15.20;13.80;;;;;;;4.02;100.00;96848.16;5021237;28;20762;-56
2022/11/09 03:46:15;;;;;;;16.03;14.53;;;;;;;4.01;100.00;96846.50;5021392;28;20626;-60
2022/11/09 03:48:43;;;;;;;15.57;14.07;;;;;;;3.99;100.00;96837.13;4975082;28;20223;-60
2022/11/09 03:51:12;;;;;;;16.10;14.67;;;;;;;3.98;100.00;96838.13;5020679;28;20233;-58
2022/11/09 03:53:40;;;;;;;16.90;15.20;;;;;;;4.00;100.00;96836.16;5022961;28;20215;-57
2022/11/09 03:56:08;;;;;;;16.23;14.83;;;;;;;4.02;100.00;96842.91;4996565;28;22198;-60
2022/11/09 03:58:37;;;;;;;16.77;15.10;;;;;;;3.98;100.00;96853.84;5022392;28;20230;-61
2022/11/09 04:01:07;;;;;;;16.43;14.70;;;;;;;4.01;100.00;96851.75;5022739;28;20260;-58
2022/11/09 04:03:35;;;;;;;16.23;14.73;;;;;;;4.01;100.00;96838.66;4975861;28;22017;-60
2022/11/09 04:06:03;;;;;;;17.23;15.43;;;;;;;3.95;100.00;96838.41;5020785;28;20370;-58
2022/11/09 04:08:32;;;;;;;18.80;15.23;;;;;;;3.95;100.00;96841.84;5021857;28;20669;-55
2022/11/09 04:11:00;;;;;;;16.67;15.03;;;;;;;3.97;100.00;96839.91;4994789;28;20725;-60
2022/11/09 04:13:28;;;;;;;17.50;15.80;;;;;;;3.97;100.00;96839.91;5022541;28;20290;-60
2022/11/09 04:15:57;;;;;;;17.43;15.73;;;;;;;3.99;100.00;96840.59;5012307;28;20232;-61
2022/11/09 04:18:27;;;;;;;18.47;16.50;;;;;;;4.01;100.00;96833.41;4960384;28;21893;-60
2022/11/09 04:20:58;;;;;;;16.70;15.17;;;;;;;4.01;100.00;96836.03;5021794;28;20207;-60
2022/11/09 04:23:26;;;;;;;17.60;15.90;;;;;;;3.98;100.00;96833.72;5021327;28;20195;-60
2022/11/09 04:25:54;;;;;;;17.47;15.67;;;;;;;4.00;100.00;96834.38;4996178;28;20206;-61
2022/11/09 04:28:23;;;;;;;18.27;16.10;;;;;;;4.02;100.00;96828.97;5019739;28;20455;-60
2022/11/09 04:30:51;;;;;;;16.77;15.20;;;;;;;4.04;100.00;96819.16;4993597;28;21441;-60
2022/11/09 04:33:20;;;;;;;17.67;15.87;;;;;;;4.06;100.00;96825.06;5014873;28;20228;-58
2022/11/09 04:35:50;;;;;;;16.37;14.60;;;;;;;3.99;100.00;96811.75;4981861;28;20202;-60
2022/11/09 04:38:19;;;;;;;16.83;15.27;;;;;;;4.04;100.00;96811.28;5021763;28;21410;-59
2022/11/09 04:40:47;;;;;;;18.50;16.60;;;;;;;4.23;100.00;96822.59;4994815;28;20392;-59
2022/11/09 04:43:16;;;;;;;16.40;14.67;;;;;;;4.28;100.00;96821.13;5006505;28;20214;-61
2022/11/09 04:45:46;;;;;;;16.97;15.17;;;;;;;4.29;100.00;96814.91;5011315;28;20210;-61
2022/11/09 04:48:14;;;;;;;15.33;13.93;;;;;;;4.27;100.00;96806.38;5021819;28;20238;-58
2022/11/09 04:50:43;;;;;;;16.43;14.80;;;;;;;4.31;100.00;96815.56;4940185;28;20931;-62
2022/11/09 04:53:14;;;;;;;16.73;15.03;;;;;;;4.29;100.00;96816.72;5021167;28;22534;-59
2022/11/09 04:55:43;;;;;;;16.03;14.43;;;;;;;4.29;100.00;96803.59;4992059;28;20916;-61
2022/11/09 04:58:11;;;;;;;14.90;13.40;;;;;;;4.26;100.00;96809.16;5022837;28;20953;-61
2022/11/09 05:00:39;;;;;;;14.23;12.87;;;;;;;4.24;100.00;96822.41;5018663;28;20397;-61
2022/11/09 05:03:08;;;;;;;14.47;13.13;;;;;;;4.29;100.00;96816.72;5022477;28;20672;-60
2022/11/09 05:05:38;;;;;;;14.33;13.03;;;;;;;4.19;100.00;96806.31;4951407;28;20448;-61
2022/11/09 05:08:15;;;;;;;15.10;13.60;;;;;;;4.21;100.00;96814.84;5021714;28;20626;-61
2022/11/09 05:10:43;;;;;;;15.63;14.03;;;;;;;4.33;100.00;96818.88;5020062;28;20211;-61
2022/11/09 05:13:12;;;;;;;14.43;13.13;;;;;;;4.34;100.00;96822.31;4998431;28;20891;-62
2022/11/09 05:15:41;;;;;;;13.63;12.33;;;;;;;4.39;100.00;96827.13;5019399;28;20553;-61
2022/11/09 05:18:10;;;;;;;15.30;13.93;;;;;;;4.46;100.00;96828.97;5024017;28;20203;-58
2022/11/09 05:20:39;;;;;;;16.17;14.67;;;;;;;4.41;100.00;96840.91;4980030;28;20510;-62
2022/11/09 05:25:54;;;;;;;15.33;13.90;;;;;;;4.16;100.00;96848.59;5019243;28;20923;-59
2022/11/09 05:28:22;;;;;;;16.30;14.70;;;;;;;4.03;100.00;96844.56;4981106;28;20229;-60
2022/11/09 05:30:50;;;;;;;15.90;14.50;;;;;;;4.00;100.00;96841.41;5019557;28;20210;-58
2022/11/09 05:33:18;;;;;;;16.00;14.47;;;;;;;3.94;100.00;96848.06;4993798;28;20480;-60
2022/11/09 05:35:47;;;;;;;13.67;12.00;;;;;;;3.86;100.00;96837.50;5002837;28;20262;-61
2022/11/09 05:38:16;;;;;;;13.13;11.93;;;;;;;3.83;100.00;96835.19;4995136;28;20214;-60
2022/11/09 05:40:44;;;;;;;15.00;13.53;;;;;;;3.83;100.00;96843.91;4934575;28;20841;-62
2022/11/09 05:43:14;;;;;;;15.00;13.53;;;;;;;3.79;100.00;96846.94;5004981;28;20412;-62
2022/11/09 05:45:43;;;;;;;14.63;13.27;;;;;;;3.71;100.00;96830.19;4987509;28;20221;-62
2022/11/09 05:48:12;;;;;;;14.70;13.30;;;;;;;3.76;100.00;96835.78;5002718;28;20775;-60
2022/11/09 05:50:41;;;;;;;15.10;13.60;;;;;;;3.77;100.00;96847.09;5021710;28;20219;-61
2022/11/09 05:53:10;;;;;;;14.87;13.57;;;;;;;3.80;100.00;96844.19;5000863;28;20509;-60
2022/11/09 05:55:39;;;;;;;15.43;14.03;;;;;;;3.84;100.00;96847.31;4971729;28;20226;-59
2022/11/09 05:58:07;;;;;;;14.00;12.77;;;;;;;3.88;100.00;96841.63;5017953;28;20195;-57
2022/11/09 06:00:37;;;;;;;14.03;12.83;;;;;;;3.97;100.00;96849.56;5019904;28;21024;-58
2022/11/09 06:03:06;;;;;;;15.00;13.63;;;;;;;4.07;100.00;96849.50;4992387;28;20363;-61
2022/11/09 06:05:35;;;;;;;13.03;11.83;;;;;;;4.16;100.00;96859.06;5021268;28;20797;-61
2022/11/09 06:08:04;;;;;;;15.17;13.73;;;;;;;4.22;100.00;96863.72;4993814;28;20244;-61
2022/11/09 06:10:33;;;;;;;14.10;12.70;;;;;;;4.27;100.00;96861.44;4972688;28;20238;-62
2022/11/09 06:13:01;;;;;;;13.83;12.43;;;;;;;4.32;100.00;96867.06;5021162;28;20872;-61
2022/11/09 06:15:29;;;;;;;13.20;12.07;;;;;;;4.41;100.00;96875.81;5023697;28;20207;-61
2022/11/09 06:17:59;;;;;;;15.07;13.63;;;;;;;4.51;100.00;96882.78;4991539;28;20962;-60
2022/11/09 06:20:28;;;;;;;13.83;12.47;;;;;;;4.56;100.00;96883.97;4992011;28;20230;-63
2022/11/09 06:22:57;;;;;;;13.23;12.00;;;;;;;4.57;100.00;96883.00;5002394;28;20220;-61
2022/11/09 06:25:31;;;;;;;13.93;12.63;;;;;;;4.60;100.00;96872.19;4990966;28;20341;-62
2022/11/09 06:28:00;;;;;;;13.03;11.93;;;;;;;4.65;100.00;96887.47;5024544;28;20661;-61
2022/11/09 06:30:28;;;;;;;13.07;11.97;;;;;;;4.71;100.00;96868.50;5024159;28;20419;-61
2022/11/09 06:33:01;;;;;;;13.60;12.40;;;;;;;4.73;100.00;96873.56;5002168;28;20206;-62
2022/11/09 06:35:30;;;;;;;13.27;11.93;;;;;;;4.73;100.00;96879.66;5025037;28;20916;-60
2022/11/09 06:37:58;;;;;;;13.23;11.97;;;;;;;4.74;100.00;96880.50;5002309;28;20222;-59
2022/11/09 06:40:27;;;;;;;12.47;11.20;;;;;;;4.75;100.00;96882.94;4984217;28;21713;-63
2022/11/09 06:42:57;;;;;;;13.47;12.27;;;;;;;4.78;100.00;96895.75;5024222;28;20237;-62
2022/11/09 06:45:25;;;;;;;11.10;10.20;;;;;;;4.81;100.00;96894.63;5024149;28;20202;-61
2022/11/09 06:47:56;;;;;;;12.23;11.23;;;;;;;4.78;100.00;96916.75;4995159;28;20259;-61
2022/11/09 06:50:27;;;;;;;10.90;9.90;;;;;;;4.73;100.00;96916.41;5011888;28;20233;-60
2022/11/09 06:52:57;;;;;;;11.43;10.53;;;;;;;4.77;100.00;96930.88;5016458;28;20203;-61
2022/11/09 06:55:26;;;;;;;11.57;10.57;;;;;;;4.74;100.00;96941.66;5013737;28;20222;-61
2022/11/09 06:57:55;;;;;;;11.13;10.23;;;;;;;4.78;100.00;96945.63;4982759;28;20211;-59
2022/11/09 07:00:24;;;;;;;12.80;11.50;;;;;;;4.81;100.00;96954.19;5011621;28;20225;-64
2022/11/09 07:02:54;;;;;;;12.93;11.73;;;;;;;4.76;100.00;96962.53;5017089;28;21339;-60
2022/11/09 07:05:22;;;;;;;13.13;11.73;;;;;;;4.85;100.00;96961.59;4989061;28;20214;-58
2022/11/09 07:07:52;;;;;;;12.43;11.43;;;;;;;4.89;100.00;96967.34;5021468;28;21058;-60
2022/11/09 07:10:20;;;;;;;12.67;11.67;;;;;;;4.95;100.00;96960.69;4994229;28;20234;-60
2022/11/09 07:12:48;;;;;;;12.40;11.30;;;;;;;4.74;100.00;96964.47;4984402;28;20214;-58
2022/11/09 07:15:17;;;;;;;12.73;11.73;;;;;;;4.71;100.00;96954.25;5019879;28;20218;-60
2022/11/09 07:17:45;;;;;;;12.80;11.70;;;;;;;4.63;100.00;96961.09;5024786;28;21031;-58
2022/11/09 07:20:13;;;;;;;12.60;11.50;;;;;;;4.70;100.00;96976.22;4994785;28;20436;-59
2022/11/09 07:22:42;;;;;;;13.07;11.97;;;;;;;4.72;100.00;96969.03;5024897;28;20253;-62
2022/11/09 07:25:12;;;;;;;12.97;11.87;;;;;;;4.81;100.00;96975.19;4995212;28;21939;-59
2022/11/09 07:27:40;;;;;;;13.70;12.50;;;;;;;4.85;100.00;96974.72;4970575;28;20229;-59
2022/11/09 07:30:10;;;;;;;12.30;11.30;;;;;;;4.80;100.00;96986.66;5019160;28;20319;-60
2022/11/09 07:32:39;;;;;;;12.80;11.70;;;;;;;4.85;100.00;96968.63;5023452;28;21144;-58
2022/11/09 07:35:28;;;;;;;13.57;12.37;;;;;;;4.66;100.00;96975.72;4996426;28;21445;-60
2022/11/09 07:38:00;;;;;;;12.13;11.13;;;;;;;4.74;100.00;96975.78;5022963;28;20326;-60
2022/11/09 07:40:30;;;;;;;13.90;12.70;;;;;;;4.71;100.00;96998.88;4993674;28;20689;-60
2022/11/09 07:42:59;;;;;;;13.33;12.07;;;;;;;4.70;100.00;96986.72;4993814;28;20329;-60
2022/11/09 07:45:28;;;;;;;12.40;11.30;;;;;;;4.74;100.00;97004.66;5007791;28;20671;-59
2022/11/09 07:47:57;;;;;;;12.63;11.53;;;;;;;4.71;100.00;96988.38;4939176;28;20226;-60
2022/11/09 07:50:25;;;;;;;13.43;12.33;;;;;;;5.01;100.00;96981.06;5003347;28;21129;-60
2022/11/09 07:52:55;;;;;;;13.30;12.13;;;;;;;5.26;100.00;96982.03;5019537;28;20198;-57
2022/11/09 07:55:23;;;;;;;15.07;13.57;;;;;;;5.57;100.00;96986.81;4993708;28;20211;-60
2022/11/09 07:57:56;;;;;;;12.93;11.90;;;;;;;5.56;100.00;96995.69;5023995;28;22428;-61
2022/11/09 08:00:25;;;;;;;13.00;11.90;;;;;;;5.60;100.00;96993.56;5023550;28;20226;-60
2022/11/09 08:02:54;;;;;;;12.43;11.37;;;;;;;5.72;100.00;97004.63;4955804;28;20207;-60
2022/11/09 08:05:22;;;;;;;11.80;10.80;;;;;;;5.92;100.00;97006.00;5021807;28;21049;-60
2022/11/09 08:07:54;;;;;;;10.80;9.90;;;;;;;5.98;100.00;96990.56;5020103;28;20238;-62
2022/11/09 08:10:23;;;;;;;10.93;10.03;;;;;;;6.12;100.00;96990.00;4993815;28;20227;-60
2022/11/09 08:12:57;;;;;;;9.77;9.07;;;;;;;5.95;100.00;96986.47;5017910;28;20412;-62
2022/11/09 08:15:26;;;;;;;9.70;8.90;;;;;;;5.78;100.00;96969.81;5022470;28;20737;-62
2022/11/09 08:17:54;;;;;;;11.03;9.83;;;;;;;5.79;100.00;96972.28;4935921;28;21056;-63
2022/11/09 08:20:23;;;;;;;10.23;9.43;;;;;;;5.75;100.00;96981.47;5021751;28;20248;-62
2022/11/09 08:22:51;;;;;;;11.23;10.17;;;;;;;5.74;100.00;96982.44;5017658;28;20335;-60
2022/11/09 08:25:20;;;;;;;10.17;9.37;;;;;;;5.83;100.00;96969.31;4993766;28;20203;-63
2022/11/09 08:27:48;;;;;;;10.07;9.37;;;;;;;5.77;100.00;96976.06;5019583;28;20653;-61
2022/11/09 08:30:19;;;;;;;10.80;9.90;;;;;;;5.76;100.00;96980.47;5020913;28;20332;-61
2022/11/09 08:32:48;;;;;;;10.70;9.90;;;;;;;5.86;100.00;96988.25;4969349;28;26560;-62
2022/11/09 08:35:19;;;;;;;10.33;9.53;;;;;;;5.88;100.00;96996.00;5020677;28;20753;-61
2022/11/09 08:37:48;;;;;;;11.47;10.47;;;;;;;5.77;100.00;97003.16;5018369;28;20353;-59
2022/11/09 08:40:18;;;;;;;10.27;9.40;;;;;;;5.98;100.00;97004.56;4995804;28;20219;-61
2022/11/09 08:42:46;;;;;;;11.77;10.70;;;;;;;6.26;100.00;96999.09;5016869;28;20384;-62
2022/11/09 08:45:15;;;;;;;11.73;10.70;;;;;;;6.45;100.00;96989.25;5020256;28;20360;-58
2022/11/09 08:47:45;;;;;;;11.40;10.40;;;;;;;6.40;100.00;96989.72;5019048;28;20233;-63
2022/11/09 08:50:15;;;;;;;10.33;9.50;;;;;;;6.52;100.00;96992.88;4970848;28;20329;-61
2022/11/09 08:52:43;;;;;;;9.27;8.50;;;;;;;6.47;100.00;96992.53;5018138;28;20202;-61
2022/11/09 08:55:12;;;;;;;9.23;8.53;;;;;;;6.71;100.00;96996.19;5020045;28;21117;-60
2022/11/09 08:57:40;;;;;;;9.73;8.93;;;;;;;6.77;100.00;96996.34;4994423;28;20214;-62
2022/11/09 09:00:09;;;;;;;10.10;9.20;;;;;;;6.73;100.00;96992.38;5020061;28;20758;-64
2022/11/09 09:02:37;;;;;;;10.43;9.43;;;;;;;6.75;100.00;96986.97;5018454;28;20206;-61
2022/11/09 09:05:07;;;;;;;9.43;8.73;;;;;;;6.61;100.00;96980.53;4971513;28;20759;-59
2022/11/09 09:07:37;;;;;;;10.37;9.57;;;;;;;6.75;100.00;96984.34;5014047;28;20207;-61
2022/11/09 09:10:05;;;;;;;10.07;9.27;;;;;;;6.75;100.00;96982.50;5020007;28;20642;-61
2022/11/09 09:12:34;;;;;;;9.83;9.10;;;;;;;6.74;100.00;96983.50;4990145;28;21788;-61
2022/11/09 09:15:02;;;;;;;10.87;9.97;;;;;;;6.55;100.00;96983.84;5018759;28;20202;-60
2022/11/09 09:17:34;;;;;;;11.00;10.00;;;;;;;6.52;100.00;96990.22;5017850;28;20198;-60
2022/11/09 09:20:03;;;;;;;10.90;10.00;;;;;;;6.50;100.00;96994.84;5019400;28;20283;-59
2022/11/09 09:22:33;;;;;;;10.80;9.90;;;;;;;6.66;100.00;96988.78;4970601;28;20218;-61
2022/11/09 09:25:01;;;;;;;11.67;10.67;;;;;;;6.83;100.00;97001.97;5019933;28;20454;-61
2022/11/09 09:27:29;;;;;;;11.53;10.63;;;;;;;7.03;100.00;96999.81;4989136;28;20863;-60
2022/11/09 09:29:58;;;;;;;10.90;10.00;;;;;;;7.27;100.00;96990.22;5018194;28;20565;-60
2022/11/09 09:32:26;;;;;;;11.50;10.40;;;;;;;7.37;100.00;96983.78;5019559;28;20203;-60
2022/11/09 09:34:54;;;;;;;11.73;10.83;;;;;;;7.36;100.00;96970.75;5017928;28;20936;-59
2022/11/09 09:37:23;;;;;;;11.47;10.47;;;;;;;7.17;100.00;96978.03;4969657;28;20219;-61
2022/11/09 09:39:52;;;;;;;11.53;10.70;;;;;;;7.86;100.00;96975.88;5018532;28;20534;-60
2022/11/09 09:42:24;;;;;;;10.87;9.97;;;;;;;7.72;100.00;96988.75;4996833;28;20745;-59
2022/11/09 09:44:56;;;;;;;10.50;9.70;;;;;;;7.84;100.00;96989.22;5022015;28;20203;-61
2022/11/09 09:47:29;;;;;;;10.93;10.03;;;;;;;8.43;100.00;96990.56;5022661;28;21590;-61
2022/11/09 09:50:01;;;;;;;11.07;10.13;;;;;;;8.67;100.00;96986.13;5021913;28;20495;-60
2022/11/09 09:52:40;;;;;;;11.53;10.53;;;;;;;8.90;100.00;96988.78;4972200;28;21828;-60
2022/11/09 09:55:17;;;;;;;9.80;9.10;;;;;;;9.25;100.00;96997.03;4949744;28;20709;-62
2022/11/09 09:57:50;;;;;;;9.60;8.90;;;;;;;8.65;100.00;96998.69;5020531;28;20687;-62
2022/11/09 10:00:21;;;;;;;9.30;8.60;;;;;;;8.51;100.00;96987.06;5024554;28;20319;-61
2022/11/09 10:02:51;;;;;;;10.20;9.40;;;;;;;8.30;100.00;96991.13;4995028;28;20744;-59
2022/11/09 10:05:20;;;;;;;9.00;8.30;;;;;;;8.45;100.00;96982.47;5023613;28;22429;-60
2022/11/09 10:07:52;;;;;;;9.03;8.43;;;;;;;8.23;100.00;96979.63;5021417;28;20328;-62
2022/11/09 10:10:38;;;;;;;9.00;8.33;;;;;;;8.28;100.00;96985.22;4970844;28;20454;-60
2022/11/09 10:13:21;;;;;;;9.60;8.80;;;;;;;8.29;100.00;96978.94;5020881;28;21718;-62
2022/11/09 10:15:54;;;;;;;8.57;7.97;;;;;;;8.37;100.00;96970.16;5003918;28;20215;-62
2022/11/09 10:18:41;;;;;;;9.37;8.67;;;;;;;8.18;100.00;96982.78;5024640;28;20233;-61
2022/11/09 10:21:18;;;;;;;8.27;7.67;;;;;;;8.26;100.00;96977.47;5021946;28;20199;-63
2022/11/09 10:23:57;;;;;;;9.13;8.33;;;;;;;8.36;100.00;96979.06;5023168;28;20225;-62
2022/11/09 10:26:33;;;;;;;8.60;7.87;;;;;;;8.51;100.00;96965.94;4986952;28;20211;-61
2022/11/09 10:29:09;;;;;;;7.70;7.10;;;;;;;8.39;100.00;96971.59;5018414;28;20347;-60
2022/11/09 10:31:44;;;;;;;9.13;8.43;;;;;;;8.44;100.00;96970.25;4995175;28;20210;-62
2022/11/09 10:34:17;;;;;;;9.13;8.53;;;;;;;8.26;100.00;96958.16;5020308;28;22227;-62
2022/11/09 10:36:50;;;;;;;8.73;8.07;;;;;;;8.10;100.00;96959.91;5021196;28;20199;-61
2022/11/09 10:39:19;;;;;;;9.03;8.33;;;;;;;8.15;100.00;96950.66;5021747;28;20275;-60
2022/11/09 10:41:48;;;;;;;8.97;8.17;;;;;;;8.24;100.00;96954.88;4965976;28;20709;-60
2022/11/09 10:44:19;;;;;;;9.03;8.43;;;;;;;8.48;100.00;96953.06;5020036;28;20199;-60
2022/11/09 10:47:05;;;;;;;9.87;9.03;;;;;;;8.40;100.00;96936.28;5003567;28;20222;-60
2022/11/09 10:49:34;;;;;;;9.70;9.00;;;;;;;8.42;100.00;96937.94;5021817;28;20640;-58
2022/11/09 10:52:03;;;;;;;9.77;9.07;;;;;;;8.68;100.00;96934.94;5020273;28;20229;-61
2022/11/09 10:54:33;;;;;;;10.03;9.20;;;;;;;8.40;100.00;96938.13;5021186;28;20856;-57
2022/11/09 10:57:11;;;;;;;8.80;8.10;;;;;;;8.26;100.00;96932.59;4966942;28;20317;-59
2022/11/09 10:59:49;;;;;;;9.27;8.47;;;;;;;8.03;100.00;96932.56;5019330;28;20713;-59
2022/11/09 11:02:42;;;;;;;9.67;8.77;;;;;;;8.23;100.00;96930.28;4995416;28;20542;-59
2022/11/09 11:05:29;;;;;;;9.57;8.87;;;;;;;8.22;100.00;96930.50;4989595;28;20972;-59
2022/11/09 11:07:57;;;;;;;9.47;8.70;;;;;;;8.18;100.00;96932.66;5002693;28;20869;-61
2022/11/09 11:10:26;;;;;;;9.70;8.90;;;;;;;8.29;100.00;96930.59;5016984;28;20847;-61
2022/11/09 11:13:19;;;;;;;10.20;9.40;;;;;;;8.30;100.00;96934.88;4970350;28;21489;-60
2022/11/09 11:15:48;;;;;;;9.37;8.67;;;;;;;8.42;100.00;96930.84;5022183;28;20641;-62
2022/11/09 11:18:20;;;;;;;10.07;9.27;;;;;;;8.72;100.00;96915.13;4995557;28;20693;-61
2022/11/09 11:20:49;;;;;;;9.10;8.40;;;;;;;8.52;100.00;96899.75;5022084;28;20209;-59
2022/11/09 11:23:19;;;;;;;9.73;8.93;;;;;;;8.74;100.00;96904.38;4993375;28;20793;-61
2022/11/09 11:26:01;;;;;;;9.87;9.00;;;;;;;8.77;100.00;96893.44;5019588;28;20310;-62
2022/11/09 11:28:34;;;;;;;10.47;9.57;;;;;;;8.60;100.00;96888.31;4966600;28;20744;-60
2022/11/09 11:31:03;;;;;;;9.20;8.50;;;;;;;8.65;100.00;96885.97;4984987;28;20230;-61
2022/11/09 11:33:33;;;;;;;8.77;8.07;;;;;;;8.81;100.00;96886.78;5022845;28;20737;-62
2022/11/09 11:36:07;;;;;;;9.13;8.43;;;;;;;8.90;100.00;96893.66;4961833;28;20535;-62
2022/11/09 11:38:38;;;;;;;8.90;8.20;;;;;;;9.01;100.00;96891.56;5022103;28;20207;-60